sensor_id;sensor_type;location;lat;lon;timestamp;P1;durP1;ratioP1;P2;durP2;ratioP2
16393;SDS011;8306;51.128;4.476;2024-01-11T00:01:59;16.30;;;14.10;;
16393;SDS011;8306;51.128;4.476;2024-01-11T00:04:26;24.37;;;15.60;;
16393;SDS011;8306;51.128;4.476;2024-01-11T00:06:52;21.00;;;14.63;;
16393;SDS011;8306;51.128;4.476;2024-01-11T00:09:19;24.97;;;15.37;;
16393;SDS011;8306;51.128;4.476;2024-01-11T00:11:45;22.70;;;15.10;;
16393;SDS011;8306;51.128;4.476;2024-01-11T00:14:12;17.37;;;15.03;;
16393;SDS011;8306;51.128;4.476;2024-01-11T00:16:38;24.70;;;15.07;;
16393;SDS011;8306;51.128;4.476;2024-01-11T00:19:05;23.30;;;16.70;;
16393;SDS011;8306;51.128;4.476;2024-01-11T00:21:31;18.07;;;14.57;;
16393;SDS011;8306;51.128;4.476;2024-01-11T00:23:58;22.60;;;16.57;;
16393;SDS011;8306;51.128;4.476;2024-01-11T00:26:24;22.93;;;15.10;;
16393;SDS011;8306;51.128;4.476;2024-01-11T00:28:51;23.57;;;16.23;;
16393;SDS011;8306;51.128;4.476;2024-01-11T00:31:17;23.87;;;16.47;;
16393;SDS011;8306;51.128;4.476;2024-01-11T00:33:44;21.73;;;16.47;;
16393;SDS011;8306;51.128;4.476;2024-01-11T00:36:10;30.57;;;17.43;;
16393;SDS011;8306;51.128;4.476;2024-01-11T00:38:37;20.67;;;16.80;;
16393;SDS011;8306;51.128;4.476;2024-01-11T00:41:03;22.33;;;15.47;;
16393;SDS011;8306;51.128;4.476;2024-01-11T00:43:30;21.87;;;15.37;;
16393;SDS011;8306;51.128;4.476;2024-01-11T00:45:56;18.37;;;14.73;;
16393;SDS011;8306;51.128;4.476;2024-01-11T00:48:23;18.33;;;15.50;;
16393;SDS011;8306;51.128;4.476;2024-01-11T00:50:49;19.33;;;15.63;;
16393;SDS011;8306;51.128;4.476;2024-01-11T00:53:16;18.87;;;15.17;;
16393;SDS011;8306;51.128;4.476;2024-01-11T00:55:42;17.20;;;15.17;;
16393;SDS011;8306;51.128;4.476;2024-01-11T00:58:09;17.33;;;15.47;;
16393;SDS011;8306;51.128;4.476;2024-01-11T01:00:35;16.70;;;15.03;;
16393;SDS011;8306;51.128;4.476;2024-01-11T01:03:02;19.70;;;14.63;;
16393;SDS011;8306;51.128;4.476;2024-01-11T01:05:28;18.43;;;15.83;;
16393;SDS011;8306;51.128;4.476;2024-01-11T01:07:54;23.60;;;15.50;;
16393;SDS011;8306;51.128;4.476;2024-01-11T01:10:21;17.93;;;15.80;;
16393;SDS011;8306;51.128;4.476;2024-01-11T01:12:47;19.77;;;16.27;;
16393;SDS011;8306;51.128;4.476;2024-01-11T01:15:14;16.97;;;15.17;;
16393;SDS011;8306;51.128;4.476;2024-01-11T01:17:40;16.87;;;15.07;;
16393;SDS011;8306;51.128;4.476;2024-01-11T01:20:07;17.67;;;14.90;;
16393;SDS011;8306;51.128;4.476;2024-01-11T01:22:33;21.40;;;15.77;;
16393;SDS011;8306;51.128;4.476;2024-01-11T01:25:00;19.47;;;15.53;;
16393;SDS011;8306;51.128;4.476;2024-01-11T01:27:26;18.87;;;16.47;;
16393;SDS011;8306;51.128;4.476;2024-01-11T01:29:53;18.87;;;15.57;;
16393;SDS011;8306;51.128;4.476;2024-01-11T01:32:19;16.87;;;15.17;;
16393;SDS011;8306;51.128;4.476;2024-01-11T01:34:46;19.77;;;16.53;;
16393;SDS011;8306;51.128;4.476;2024-01-11T01:37:12;21.27;;;16.47;;
16393;SDS011;8306;51.128;4.476;2024-01-11T01:39:39;20.37;;;16.17;;
16393;SDS011;8306;51.128;4.476;2024-01-11T01:42:05;18.87;;;16.07;;
16393;SDS011;8306;51.128;4.476;2024-01-11T01:44:32;17.37;;;14.90;;
16393;SDS011;8306;51.128;4.476;2024-01-11T01:47:01;22.07;;;16.43;;
16393;SDS011;8306;51.128;4.476;2024-01-11T01:49:25;17.10;;;15.27;;
16393;SDS011;8306;51.128;4.476;2024-01-11T01:51:52;18.87;;;15.77;;
16393;SDS011;8306;51.128;4.476;2024-01-11T01:54:18;17.80;;;16.00;;
16393;SDS011;8306;51.128;4.476;2024-01-11T01:56:44;20.33;;;16.47;;
16393;SDS011;8306;51.128;4.476;2024-01-11T01:59:11;18.70;;;16.70;;
16393;SDS011;8306;51.128;4.476;2024-01-11T02:01:37;23.93;;;16.13;;
16393;SDS011;8306;51.128;4.476;2024-01-11T02:04:04;24.67;;;16.43;;
16393;SDS011;8306;51.128;4.476;2024-01-11T02:06:30;22.67;;;17.17;;
16393;SDS011;8306;51.128;4.476;2024-01-11T02:08:57;22.97;;;16.97;;
16393;SDS011;8306;51.128;4.476;2024-01-11T02:11:23;19.93;;;16.43;;
16393;SDS011;8306;51.128;4.476;2024-01-11T02:13:50;17.67;;;15.57;;
16393;SDS011;8306;51.128;4.476;2024-01-11T02:16:16;22.53;;;16.77;;
16393;SDS011;8306;51.128;4.476;2024-01-11T02:18:43;19.60;;;16.40;;
16393;SDS011;8306;51.128;4.476;2024-01-11T02:21:11;18.77;;;16.83;;
16393;SDS011;8306;51.128;4.476;2024-01-11T02:23:37;23.47;;;17.50;;
16393;SDS011;8306;51.128;4.476;2024-01-11T02:26:03;18.30;;;16.37;;
16393;SDS011;8306;51.128;4.476;2024-01-11T02:28:29;23.73;;;16.20;;
16393;SDS011;8306;51.128;4.476;2024-01-11T02:30:55;23.17;;;16.60;;
16393;SDS011;8306;51.128;4.476;2024-01-11T02:33:22;23.20;;;17.13;;
16393;SDS011;8306;51.128;4.476;2024-01-11T02:35:48;19.63;;;16.73;;
16393;SDS011;8306;51.128;4.476;2024-01-11T02:38:15;22.43;;;17.90;;
16393;SDS011;8306;51.128;4.476;2024-01-11T02:40:41;19.70;;;16.90;;
16393;SDS011;8306;51.128;4.476;2024-01-11T02:43:08;21.97;;;17.23;;
16393;SDS011;8306;51.128;4.476;2024-01-11T02:45:34;21.30;;;16.63;;
16393;SDS011;8306;51.128;4.476;2024-01-11T02:48:01;21.60;;;16.73;;
16393;SDS011;8306;51.128;4.476;2024-01-11T02:50:27;22.20;;;17.37;;
16393;SDS011;8306;51.128;4.476;2024-01-11T02:52:54;19.80;;;17.00;;
16393;SDS011;8306;51.128;4.476;2024-01-11T02:55:20;21.60;;;17.17;;
16393;SDS011;8306;51.128;4.476;2024-01-11T02:57:47;24.53;;;16.60;;
16393;SDS011;8306;51.128;4.476;2024-01-11T03:00:13;18.23;;;16.00;;
16393;SDS011;8306;51.128;4.476;2024-01-11T03:02:40;20.27;;;16.67;;
16393;SDS011;8306;51.128;4.476;2024-01-11T03:05:06;22.83;;;18.00;;
16393;SDS011;8306;51.128;4.476;2024-01-11T03:07:33;28.27;;;16.57;;
16393;SDS011;8306;51.128;4.476;2024-01-11T03:09:59;23.00;;;16.70;;
16393;SDS011;8306;51.128;4.476;2024-01-11T03:12:26;24.73;;;17.60;;
16393;SDS011;8306;51.128;4.476;2024-01-11T03:14:52;20.80;;;17.00;;
16393;SDS011;8306;51.128;4.476;2024-01-11T03:17:19;20.60;;;17.57;;
16393;SDS011;8306;51.128;4.476;2024-01-11T03:19:45;25.43;;;18.03;;
16393;SDS011;8306;51.128;4.476;2024-01-11T03:22:12;19.90;;;16.83;;
16393;SDS011;8306;51.128;4.476;2024-01-11T03:24:38;20.37;;;16.50;;
16393;SDS011;8306;51.128;4.476;2024-01-11T03:27:05;22.67;;;17.20;;
16393;SDS011;8306;51.128;4.476;2024-01-11T03:29:34;20.00;;;17.00;;
16393;SDS011;8306;51.128;4.476;2024-01-11T03:32:00;21.23;;;16.37;;
16393;SDS011;8306;51.128;4.476;2024-01-11T03:34:27;24.80;;;17.10;;
16393;SDS011;8306;51.128;4.476;2024-01-11T03:36:53;20.57;;;15.37;;
16393;SDS011;8306;51.128;4.476;2024-01-11T03:39:19;21.87;;;16.67;;
16393;SDS011;8306;51.128;4.476;2024-01-11T03:41:46;21.27;;;17.60;;
16393;SDS011;8306;51.128;4.476;2024-01-11T03:44:12;25.80;;;16.53;;
16393;SDS011;8306;51.128;4.476;2024-01-11T03:46:39;21.43;;;16.47;;
16393;SDS011;8306;51.128;4.476;2024-01-11T03:49:05;24.17;;;16.63;;
16393;SDS011;8306;51.128;4.476;2024-01-11T03:51:32;20.37;;;16.87;;
16393;SDS011;8306;51.128;4.476;2024-01-11T03:53:58;22.23;;;16.93;;
16393;SDS011;8306;51.128;4.476;2024-01-11T03:56:25;19.07;;;16.17;;
16393;SDS011;8306;51.128;4.476;2024-01-11T03:58:51;21.13;;;15.83;;
16393;SDS011;8306;51.128;4.476;2024-01-11T04:01:18;23.30;;;17.87;;
16393;SDS011;8306;51.128;4.476;2024-01-11T04:03:44;24.27;;;17.63;;
16393;SDS011;8306;51.128;4.476;2024-01-11T04:06:21;26.73;;;17.43;;
16393;SDS011;8306;51.128;4.476;2024-01-11T04:08:46;21.63;;;17.60;;
16393;SDS011;8306;51.128;4.476;2024-01-11T04:11:12;20.17;;;16.87;;
16393;SDS011;8306;51.128;4.476;2024-01-11T04:13:39;20.50;;;16.97;;
16393;SDS011;8306;51.128;4.476;2024-01-11T04:16:05;21.13;;;16.97;;
16393;SDS011;8306;51.128;4.476;2024-01-11T04:18:32;24.77;;;16.67;;
16393;SDS011;8306;51.128;4.476;2024-01-11T04:20:59;25.23;;;17.07;;
16393;SDS011;8306;51.128;4.476;2024-01-11T04:23:25;24.23;;;17.17;;
16393;SDS011;8306;51.128;4.476;2024-01-11T04:25:52;27.13;;;16.83;;
16393;SDS011;8306;51.128;4.476;2024-01-11T04:28:18;22.77;;;17.47;;
16393;SDS011;8306;51.128;4.476;2024-01-11T04:30:45;21.93;;;17.93;;
16393;SDS011;8306;51.128;4.476;2024-01-11T04:33:11;21.63;;;16.23;;
16393;SDS011;8306;51.128;4.476;2024-01-11T04:35:38;21.50;;;17.10;;
16393;SDS011;8306;51.128;4.476;2024-01-11T04:38:04;19.03;;;16.00;;
16393;SDS011;8306;51.128;4.476;2024-01-11T04:40:31;21.70;;;16.43;;
16393;SDS011;8306;51.128;4.476;2024-01-11T04:42:57;21.57;;;15.93;;
16393;SDS011;8306;51.128;4.476;2024-01-11T04:45:24;22.83;;;16.97;;
16393;SDS011;8306;51.128;4.476;2024-01-11T04:47:50;25.30;;;16.33;;
16393;SDS011;8306;51.128;4.476;2024-01-11T04:50:17;28.23;;;17.93;;
16393;SDS011;8306;51.128;4.476;2024-01-11T04:52:43;20.57;;;17.43;;
16393;SDS011;8306;51.128;4.476;2024-01-11T04:55:10;21.17;;;16.23;;
16393;SDS011;8306;51.128;4.476;2024-01-11T04:57:36;20.17;;;16.53;;
16393;SDS011;8306;51.128;4.476;2024-01-11T05:00:03;25.57;;;17.43;;
16393;SDS011;8306;51.128;4.476;2024-01-11T05:02:29;21.27;;;16.30;;
16393;SDS011;8306;51.128;4.476;2024-01-11T05:04:56;25.40;;;16.80;;
16393;SDS011;8306;51.128;4.476;2024-01-11T05:07:22;21.33;;;16.70;;
16393;SDS011;8306;51.128;4.476;2024-01-11T05:09:48;22.43;;;17.40;;
16393;SDS011;8306;51.128;4.476;2024-01-11T05:12:15;21.57;;;17.77;;
16393;SDS011;8306;51.128;4.476;2024-01-11T05:14:41;21.27;;;18.80;;
16393;SDS011;8306;51.128;4.476;2024-01-11T05:17:08;25.07;;;18.13;;
16393;SDS011;8306;51.128;4.476;2024-01-11T05:19:34;20.93;;;16.83;;
16393;SDS011;8306;51.128;4.476;2024-01-11T05:22:01;23.60;;;17.80;;
16393;SDS011;8306;51.128;4.476;2024-01-11T05:24:27;20.57;;;17.70;;
16393;SDS011;8306;51.128;4.476;2024-01-11T05:26:54;25.70;;;18.03;;
16393;SDS011;8306;51.128;4.476;2024-01-11T05:29:20;28.80;;;18.13;;
16393;SDS011;8306;51.128;4.476;2024-01-11T05:31:47;19.53;;;17.03;;
16393;SDS011;8306;51.128;4.476;2024-01-11T05:34:13;28.73;;;17.70;;
16393;SDS011;8306;51.128;4.476;2024-01-11T05:36:40;35.53;;;18.60;;
16393;SDS011;8306;51.128;4.476;2024-01-11T05:39:06;20.97;;;16.50;;
16393;SDS011;8306;51.128;4.476;2024-01-11T05:41:33;18.97;;;16.43;;
16393;SDS011;8306;51.128;4.476;2024-01-11T05:43:59;23.63;;;18.40;;
16393;SDS011;8306;51.128;4.476;2024-01-11T05:46:26;22.90;;;17.10;;
16393;SDS011;8306;51.128;4.476;2024-01-11T05:48:52;22.40;;;18.10;;
16393;SDS011;8306;51.128;4.476;2024-01-11T05:51:19;25.80;;;17.93;;
16393;SDS011;8306;51.128;4.476;2024-01-11T05:53:45;23.43;;;18.50;;
16393;SDS011;8306;51.128;4.476;2024-01-11T05:56:12;26.17;;;16.87;;
16393;SDS011;8306;51.128;4.476;2024-01-11T05:58:39;21.53;;;17.17;;
16393;SDS011;8306;51.128;4.476;2024-01-11T06:01:05;22.57;;;17.57;;
16393;SDS011;8306;51.128;4.476;2024-01-11T06:03:31;23.77;;;18.30;;
16393;SDS011;8306;51.128;4.476;2024-01-11T06:05:58;22.37;;;17.13;;
16393;SDS011;8306;51.128;4.476;2024-01-11T06:08:24;22.40;;;17.57;;
16393;SDS011;8306;51.128;4.476;2024-01-11T06:10:51;21.43;;;17.13;;
16393;SDS011;8306;51.128;4.476;2024-01-11T06:13:17;24.37;;;18.40;;
16393;SDS011;8306;51.128;4.476;2024-01-11T06:15:44;24.87;;;18.30;;
16393;SDS011;8306;51.128;4.476;2024-01-11T06:18:10;27.77;;;18.13;;
16393;SDS011;8306;51.128;4.476;2024-01-11T06:20:36;27.53;;;18.70;;
16393;SDS011;8306;51.128;4.476;2024-01-11T06:23:03;22.77;;;16.83;;
16393;SDS011;8306;51.128;4.476;2024-01-11T06:25:29;21.57;;;17.27;;
16393;SDS011;8306;51.128;4.476;2024-01-11T06:27:56;32.07;;;18.30;;
16393;SDS011;8306;51.128;4.476;2024-01-11T06:30:22;23.03;;;17.23;;
16393;SDS011;8306;51.128;4.476;2024-01-11T06:32:49;22.10;;;18.17;;
16393;SDS011;8306;51.128;4.476;2024-01-11T06:35:15;21.13;;;16.90;;
16393;SDS011;8306;51.128;4.476;2024-01-11T06:37:42;25.27;;;18.87;;
16393;SDS011;8306;51.128;4.476;2024-01-11T06:40:08;23.53;;;17.33;;
16393;SDS011;8306;51.128;4.476;2024-01-11T06:42:35;22.00;;;17.30;;
16393;SDS011;8306;51.128;4.476;2024-01-11T06:45:01;26.47;;;18.53;;
16393;SDS011;8306;51.128;4.476;2024-01-11T06:47:28;32.90;;;19.53;;
16393;SDS011;8306;51.128;4.476;2024-01-11T06:49:54;35.33;;;20.53;;
16393;SDS011;8306;51.128;4.476;2024-01-11T06:52:21;37.50;;;22.00;;
16393;SDS011;8306;51.128;4.476;2024-01-11T06:54:47;35.70;;;20.47;;
16393;SDS011;8306;51.128;4.476;2024-01-11T06:57:14;35.53;;;20.93;;
16393;SDS011;8306;51.128;4.476;2024-01-11T06:59:40;37.53;;;21.30;;
16393;SDS011;8306;51.128;4.476;2024-01-11T07:02:07;25.93;;;20.67;;
16393;SDS011;8306;51.128;4.476;2024-01-11T07:04:33;33.70;;;21.93;;
16393;SDS011;8306;51.128;4.476;2024-01-11T07:07:00;24.57;;;17.43;;
16393;SDS011;8306;51.128;4.476;2024-01-11T07:09:26;26.13;;;18.27;;
16393;SDS011;8306;51.128;4.476;2024-01-11T07:11:53;23.40;;;18.33;;
16393;SDS011;8306;51.128;4.476;2024-01-11T07:14:19;20.70;;;17.13;;
16393;SDS011;8306;51.128;4.476;2024-01-11T07:16:46;25.20;;;17.70;;
16393;SDS011;8306;51.128;4.476;2024-01-11T07:19:12;23.77;;;19.67;;
16393;SDS011;8306;51.128;4.476;2024-01-11T07:21:39;28.13;;;18.77;;
16393;SDS011;8306;51.128;4.476;2024-01-11T07:24:05;22.40;;;17.67;;
16393;SDS011;8306;51.128;4.476;2024-01-11T07:26:32;21.63;;;17.17;;
16393;SDS011;8306;51.128;4.476;2024-01-11T07:28:58;24.80;;;16.40;;
16393;SDS011;8306;51.128;4.476;2024-01-11T07:31:24;26.00;;;18.63;;
16393;SDS011;8306;51.128;4.476;2024-01-11T07:33:51;19.30;;;17.20;;
16393;SDS011;8306;51.128;4.476;2024-01-11T07:36:17;24.57;;;18.10;;
16393;SDS011;8306;51.128;4.476;2024-01-11T07:38:44;20.70;;;16.53;;
16393;SDS011;8306;51.128;4.476;2024-01-11T07:41:10;23.27;;;16.80;;
16393;SDS011;8306;51.128;4.476;2024-01-11T07:43:37;26.27;;;18.17;;
16393;SDS011;8306;51.128;4.476;2024-01-11T07:46:03;22.63;;;16.97;;
16393;SDS011;8306;51.128;4.476;2024-01-11T07:48:30;25.13;;;16.63;;
16393;SDS011;8306;51.128;4.476;2024-01-11T07:50:57;24.27;;;17.07;;
16393;SDS011;8306;51.128;4.476;2024-01-11T07:53:23;26.70;;;17.37;;
16393;SDS011;8306;51.128;4.476;2024-01-11T07:55:49;23.43;;;17.03;;
16393;SDS011;8306;51.128;4.476;2024-01-11T07:58:16;27.33;;;18.47;;
16393;SDS011;8306;51.128;4.476;2024-01-11T08:00:42;22.60;;;16.63;;
16393;SDS011;8306;51.128;4.476;2024-01-11T08:03:09;26.17;;;17.63;;
16393;SDS011;8306;51.128;4.476;2024-01-11T08:05:35;21.80;;;17.63;;
16393;SDS011;8306;51.128;4.476;2024-01-11T08:08:02;25.27;;;17.40;;
16393;SDS011;8306;51.128;4.476;2024-01-11T08:10:28;28.67;;;18.07;;
16393;SDS011;8306;51.128;4.476;2024-01-11T08:12:55;19.57;;;17.50;;
16393;SDS011;8306;51.128;4.476;2024-01-11T08:15:21;26.23;;;18.20;;
16393;SDS011;8306;51.128;4.476;2024-01-11T08:17:48;24.40;;;18.93;;
16393;SDS011;8306;51.128;4.476;2024-01-11T08:20:14;28.10;;;19.23;;
16393;SDS011;8306;51.128;4.476;2024-01-11T08:22:41;24.03;;;17.83;;
16393;SDS011;8306;51.128;4.476;2024-01-11T08:25:07;22.33;;;17.60;;
16393;SDS011;8306;51.128;4.476;2024-01-11T08:27:34;23.47;;;17.73;;
16393;SDS011;8306;51.128;4.476;2024-01-11T08:30:00;18.90;;;16.77;;
16393;SDS011;8306;51.128;4.476;2024-01-11T08:32:27;21.50;;;17.27;;
16393;SDS011;8306;51.128;4.476;2024-01-11T08:34:53;21.13;;;17.20;;
16393;SDS011;8306;51.128;4.476;2024-01-11T08:37:20;21.33;;;16.93;;
16393;SDS011;8306;51.128;4.476;2024-01-11T08:39:46;21.03;;;17.03;;
16393;SDS011;8306;51.128;4.476;2024-01-11T08:42:13;24.73;;;16.97;;
16393;SDS011;8306;51.128;4.476;2024-01-11T08:44:42;19.50;;;16.70;;
16393;SDS011;8306;51.128;4.476;2024-01-11T08:47:08;20.27;;;16.57;;
16393;SDS011;8306;51.128;4.476;2024-01-11T08:49:38;20.60;;;17.57;;
16393;SDS011;8306;51.128;4.476;2024-01-11T08:52:04;21.97;;;16.93;;
16393;SDS011;8306;51.128;4.476;2024-01-11T08:54:30;22.00;;;16.73;;
16393;SDS011;8306;51.128;4.476;2024-01-11T08:56:57;25.20;;;16.93;;
16393;SDS011;8306;51.128;4.476;2024-01-11T08:59:23;18.47;;;16.33;;
16393;SDS011;8306;51.128;4.476;2024-01-11T09:01:50;17.83;;;16.03;;
16393;SDS011;8306;51.128;4.476;2024-01-11T09:04:16;19.77;;;16.63;;
16393;SDS011;8306;51.128;4.476;2024-01-11T09:06:43;18.87;;;16.20;;
16393;SDS011;8306;51.128;4.476;2024-01-11T09:09:12;20.80;;;16.93;;
16393;SDS011;8306;51.128;4.476;2024-01-11T09:11:39;23.07;;;17.40;;
16393;SDS011;8306;51.128;4.476;2024-01-11T09:14:08;22.40;;;17.40;;
16393;SDS011;8306;51.128;4.476;2024-01-11T09:16:37;20.37;;;16.87;;
16393;SDS011;8306;51.128;4.476;2024-01-11T09:19:04;24.50;;;18.60;;
16393;SDS011;8306;51.128;4.476;2024-01-11T09:21:30;30.90;;;19.70;;
16393;SDS011;8306;51.128;4.476;2024-01-11T09:23:57;20.10;;;17.90;;
16393;SDS011;8306;51.128;4.476;2024-01-11T09:26:23;24.00;;;17.57;;
16393;SDS011;8306;51.128;4.476;2024-01-11T09:28:49;18.50;;;16.63;;
16393;SDS011;8306;51.128;4.476;2024-01-11T09:31:16;22.90;;;16.77;;
16393;SDS011;8306;51.128;4.476;2024-01-11T09:33:42;25.53;;;17.30;;
16393;SDS011;8306;51.128;4.476;2024-01-11T09:36:09;21.20;;;17.43;;
16393;SDS011;8306;51.128;4.476;2024-01-11T09:38:35;21.80;;;16.93;;
16393;SDS011;8306;51.128;4.476;2024-01-11T09:41:06;19.07;;;16.20;;
16393;SDS011;8306;51.128;4.476;2024-01-11T09:43:31;20.10;;;15.93;;
16393;SDS011;8306;51.128;4.476;2024-01-11T09:45:58;18.80;;;15.93;;
16393;SDS011;8306;51.128;4.476;2024-01-11T09:48:24;22.43;;;16.93;;
16393;SDS011;8306;51.128;4.476;2024-01-11T09:50:51;19.83;;;16.87;;
16393;SDS011;8306;51.128;4.476;2024-01-11T09:53:17;17.37;;;15.70;;
16393;SDS011;8306;51.128;4.476;2024-01-11T09:55:44;20.13;;;15.77;;
16393;SDS011;8306;51.128;4.476;2024-01-11T09:58:10;18.27;;;16.47;;
16393;SDS011;8306;51.128;4.476;2024-01-11T10:00:37;18.07;;;16.17;;
16393;SDS011;8306;51.128;4.476;2024-01-11T10:03:03;18.43;;;16.37;;
16393;SDS011;8306;51.128;4.476;2024-01-11T10:05:30;20.47;;;17.37;;
16393;SDS011;8306;51.128;4.476;2024-01-11T10:07:56;18.10;;;16.30;;
16393;SDS011;8306;51.128;4.476;2024-01-11T10:10:22;20.03;;;17.67;;
16393;SDS011;8306;51.128;4.476;2024-01-11T10:12:49;19.47;;;17.47;;
16393;SDS011;8306;51.128;4.476;2024-01-11T10:15:15;21.43;;;17.07;;
16393;SDS011;8306;51.128;4.476;2024-01-11T10:17:42;19.23;;;16.37;;
16393;SDS011;8306;51.128;4.476;2024-01-11T10:20:08;18.07;;;15.90;;
16393;SDS011;8306;51.128;4.476;2024-01-11T10:22:35;22.40;;;17.57;;
16393;SDS011;8306;51.128;4.476;2024-01-11T10:25:08;20.40;;;16.47;;
16393;SDS011;8306;51.128;4.476;2024-01-11T10:27:37;20.87;;;16.80;;
16393;SDS011;8306;51.128;4.476;2024-01-11T10:30:06;17.70;;;15.80;;
16393;SDS011;8306;51.128;4.476;2024-01-11T10:32:33;19.33;;;16.00;;
16393;SDS011;8306;51.128;4.476;2024-01-11T10:34:59;17.47;;;15.60;;
16393;SDS011;8306;51.128;4.476;2024-01-11T10:37:25;19.83;;;17.80;;
16393;SDS011;8306;51.128;4.476;2024-01-11T10:39:52;17.70;;;15.90;;
16393;SDS011;8306;51.128;4.476;2024-01-11T10:42:18;18.17;;;15.90;;
16393;SDS011;8306;51.128;4.476;2024-01-11T10:44:45;19.20;;;17.17;;
16393;SDS011;8306;51.128;4.476;2024-01-11T10:47:11;20.50;;;16.90;;
16393;SDS011;8306;51.128;4.476;2024-01-11T10:49:39;21.97;;;16.83;;
16393;SDS011;8306;51.128;4.476;2024-01-11T10:52:05;18.90;;;16.27;;
16393;SDS011;8306;51.128;4.476;2024-01-11T10:54:31;20.77;;;15.57;;
16393;SDS011;8306;51.128;4.476;2024-01-11T10:57:01;17.80;;;16.00;;
16393;SDS011;8306;51.128;4.476;2024-01-11T10:59:24;20.10;;;16.63;;
16393;SDS011;8306;51.128;4.476;2024-01-11T11:01:53;18.13;;;15.70;;
16393;SDS011;8306;51.128;4.476;2024-01-11T11:04:20;16.50;;;14.80;;
16393;SDS011;8306;51.128;4.476;2024-01-11T11:06:46;19.67;;;15.57;;
16393;SDS011;8306;51.128;4.476;2024-01-11T11:09:13;17.10;;;15.40;;
16393;SDS011;8306;51.128;4.476;2024-01-11T11:11:39;17.23;;;15.07;;
16393;SDS011;8306;51.128;4.476;2024-01-11T11:14:06;18.20;;;14.90;;
16393;SDS011;8306;51.128;4.476;2024-01-11T11:16:32;17.97;;;15.40;;
16393;SDS011;8306;51.128;4.476;2024-01-11T11:18:58;16.83;;;15.20;;
16393;SDS011;8306;51.128;4.476;2024-01-11T11:21:25;18.27;;;15.70;;
16393;SDS011;8306;51.128;4.476;2024-01-11T11:23:51;17.90;;;15.23;;
16393;SDS011;8306;51.128;4.476;2024-01-11T11:26:18;17.80;;;15.83;;
16393;SDS011;8306;51.128;4.476;2024-01-11T11:28:44;20.00;;;14.87;;
16393;SDS011;8306;51.128;4.476;2024-01-11T11:31:11;18.80;;;14.80;;
16393;SDS011;8306;51.128;4.476;2024-01-11T11:33:37;18.10;;;16.20;;
16393;SDS011;8306;51.128;4.476;2024-01-11T11:36:04;16.63;;;14.93;;
16393;SDS011;8306;51.128;4.476;2024-01-11T11:38:30;20.50;;;15.70;;
16393;SDS011;8306;51.128;4.476;2024-01-11T11:40:58;18.00;;;15.40;;
16393;SDS011;8306;51.128;4.476;2024-01-11T11:43:24;17.03;;;15.17;;
16393;SDS011;8306;51.128;4.476;2024-01-11T11:45:50;15.77;;;14.27;;
16393;SDS011;8306;51.128;4.476;2024-01-11T11:51:10;16.87;;;15.27;;
16393;SDS011;8306;51.128;4.476;2024-01-11T11:53:42;17.43;;;15.63;;
16393;SDS011;8306;51.128;4.476;2024-01-11T11:56:12;20.77;;;15.57;;
16393;SDS011;8306;51.128;4.476;2024-01-11T11:58:38;16.00;;;14.47;;
16393;SDS011;8306;51.128;4.476;2024-01-11T12:01:05;16.13;;;14.63;;
16393;SDS011;8306;51.128;4.476;2024-01-11T12:03:32;15.67;;;14.07;;
16393;SDS011;8306;51.128;4.476;2024-01-11T12:05:58;17.23;;;15.63;;
16393;SDS011;8306;51.128;4.476;2024-01-11T12:08:24;16.70;;;15.10;;
16393;SDS011;8306;51.128;4.476;2024-01-11T12:10:51;16.70;;;15.00;;
16393;SDS011;8306;51.128;4.476;2024-01-11T12:13:17;16.30;;;14.90;;
16393;SDS011;8306;51.128;4.476;2024-01-11T12:15:43;16.30;;;14.83;;
16393;SDS011;8306;51.128;4.476;2024-01-11T12:18:10;16.03;;;14.63;;
16393;SDS011;8306;51.128;4.476;2024-01-11T12:20:36;16.20;;;14.80;;
16393;SDS011;8306;51.128;4.476;2024-01-11T12:23:03;17.30;;;13.93;;
16393;SDS011;8306;51.128;4.476;2024-01-11T12:25:29;17.27;;;15.10;;
16393;SDS011;8306;51.128;4.476;2024-01-11T12:27:56;15.83;;;14.07;;
16393;SDS011;8306;51.128;4.476;2024-01-11T12:30:22;16.07;;;14.47;;
16393;SDS011;8306;51.128;4.476;2024-01-11T12:32:49;15.57;;;13.90;;
16393;SDS011;8306;51.128;4.476;2024-01-11T12:35:16;15.80;;;14.33;;
16393;SDS011;8306;51.128;4.476;2024-01-11T12:37:52;24.20;;;17.43;;
16393;SDS011;8306;51.128;4.476;2024-01-11T12:40:20;16.67;;;15.07;;
16393;SDS011;8306;51.128;4.476;2024-01-11T12:42:46;16.63;;;14.40;;
16393;SDS011;8306;51.128;4.476;2024-01-11T12:45:13;15.60;;;14.10;;
16393;SDS011;8306;51.128;4.476;2024-01-11T12:47:39;15.93;;;14.47;;
16393;SDS011;8306;51.128;4.476;2024-01-11T12:50:06;15.47;;;14.07;;
16393;SDS011;8306;51.128;4.476;2024-01-11T12:52:33;16.40;;;14.77;;
16393;SDS011;8306;51.128;4.476;2024-01-11T12:54:59;16.70;;;15.10;;
16393;SDS011;8306;51.128;4.476;2024-01-11T12:57:26;15.17;;;13.67;;
16393;SDS011;8306;51.128;4.476;2024-01-11T12:59:52;15.40;;;14.07;;
16393;SDS011;8306;51.128;4.476;2024-01-11T13:02:19;15.80;;;14.40;;
16393;SDS011;8306;51.128;4.476;2024-01-11T13:04:45;16.30;;;14.43;;
16393;SDS011;8306;51.128;4.476;2024-01-11T13:07:12;16.30;;;14.80;;
16393;SDS011;8306;51.128;4.476;2024-01-11T13:09:38;16.13;;;14.63;;
16393;SDS011;8306;51.128;4.476;2024-01-11T13:12:05;16.27;;;14.67;;
16393;SDS011;8306;51.128;4.476;2024-01-11T13:14:31;15.97;;;14.57;;
16393;SDS011;8306;51.128;4.476;2024-01-11T13:16:57;15.80;;;14.40;;
16393;SDS011;8306;51.128;4.476;2024-01-11T13:19:24;15.07;;;13.70;;
16393;SDS011;8306;51.128;4.476;2024-01-11T13:21:50;16.33;;;14.37;;
16393;SDS011;8306;51.128;4.476;2024-01-11T13:24:17;16.10;;;14.63;;
16393;SDS011;8306;51.128;4.476;2024-01-11T13:26:43;15.67;;;14.27;;
16393;SDS011;8306;51.128;4.476;2024-01-11T13:29:10;15.93;;;14.50;;
16393;SDS011;8306;51.128;4.476;2024-01-11T13:31:36;16.97;;;15.27;;
16393;SDS011;8306;51.128;4.476;2024-01-11T13:34:03;15.37;;;13.93;;
16393;SDS011;8306;51.128;4.476;2024-01-11T13:36:29;16.87;;;14.63;;
16393;SDS011;8306;51.128;4.476;2024-01-11T13:38:56;17.37;;;15.53;;
16393;SDS011;8306;51.128;4.476;2024-01-11T13:41:22;17.37;;;15.50;;
16393;SDS011;8306;51.128;4.476;2024-01-11T13:43:49;16.07;;;14.47;;
16393;SDS011;8306;51.128;4.476;2024-01-11T13:46:15;15.57;;;14.17;;
16393;SDS011;8306;51.128;4.476;2024-01-11T13:48:42;17.00;;;15.50;;
16393;SDS011;8306;51.128;4.476;2024-01-11T13:51:08;15.83;;;14.43;;
16393;SDS011;8306;51.128;4.476;2024-01-11T13:53:35;16.27;;;14.77;;
16393;SDS011;8306;51.128;4.476;2024-01-11T13:56:01;16.47;;;14.97;;
16393;SDS011;8306;51.128;4.476;2024-01-11T13:58:28;16.97;;;15.37;;
16393;SDS011;8306;51.128;4.476;2024-01-11T14:00:54;16.67;;;14.97;;
16393;SDS011;8306;51.128;4.476;2024-01-11T14:03:21;16.83;;;15.23;;
16393;SDS011;8306;51.128;4.476;2024-01-11T14:05:47;16.37;;;14.87;;
16393;SDS011;8306;51.128;4.476;2024-01-11T14:08:13;16.80;;;15.27;;
16393;SDS011;8306;51.128;4.476;2024-01-11T14:10:40;16.40;;;14.80;;
16393;SDS011;8306;51.128;4.476;2024-01-11T14:13:06;17.80;;;16.00;;
16393;SDS011;8306;51.128;4.476;2024-01-11T14:15:33;17.33;;;15.37;;
16393;SDS011;8306;51.128;4.476;2024-01-11T14:17:59;16.70;;;15.20;;
16393;SDS011;8306;51.128;4.476;2024-01-11T14:20:26;19.37;;;17.37;;
16393;SDS011;8306;51.128;4.476;2024-01-11T14:22:52;17.47;;;15.77;;
16393;SDS011;8306;51.128;4.476;2024-01-11T14:25:19;18.07;;;16.47;;
16393;SDS011;8306;51.128;4.476;2024-01-11T14:27:46;17.97;;;16.47;;
16393;SDS011;8306;51.128;4.476;2024-01-11T14:30:12;17.80;;;16.20;;
16393;SDS011;8306;51.128;4.476;2024-01-11T14:32:38;17.17;;;15.67;;